Terminal Aerodrome Forecast
Issued by NWS Twin Cities, MN

Home | Current Version | Previous Version | Graphics & Text | Print | Product List | Glossary On
Versions: 1 2 3 4 5 6 7 8 9 10 11 12 13
978
FTUS43 KMPX 251746
TAFEAU
TAF
KEAU 251746Z 2518/2618 31012G21KT P6SM SCT025
     FM252100 28010KT P6SM FEW025 BKN050
     FM260400 21006KT P6SM SCT025 BKN050
     FM261500 25008KT P6SM BKN025=

USA.gov is the U.S. government's official web portal to all federal, state and local government web resources and services.